Time;durP1;ratioP1;P1;durP2;ratioP2;P2;SDS_P1;SDS_P2;PMS_P1;PMS_P2;Temp;Humidity;BMP_temperature;BMP_pressure;BME280_temperature;BME280_humidity;BME280_pressure;Samples;Min_cycle;Max_cycle;Signal;HPM_P1;HPM_P2
2023/05/10 00:02:23;;;;;;;12.63;8.75;;;;;;;5.28;100.00;94083.59;4928219;28;20039;-72
2023/05/10 00:04:48;;;;;;;13.00;8.35;;;;;;;5.34;100.00;94100.94;4930372;28;20061;-73
2023/05/10 00:07:13;;;;;;;11.93;8.38;;;;;;;5.37;100.00;94118.88;4942169;28;20035;-72
2023/05/10 00:09:39;;;;;;;12.23;8.52;;;;;;;5.26;100.00;94117.34;4927554;28;20052;-73
2023/05/10 00:12:05;;;;;;;11.75;8.50;;;;;;;5.14;100.00;94100.00;4943634;28;20950;-73
2023/05/10 00:14:31;;;;;;;10.23;9.05;;;;;;;5.19;100.00;94106.31;4928729;28;20558;-72
2023/05/10 00:16:56;;;;;;;11.70;9.30;;;;;;;5.33;100.00;94091.47;4927527;28;20039;-73
2023/05/10 00:19:21;;;;;;;10.45;8.80;;;;;;;5.24;100.00;94095.72;4929502;28;20044;-73
2023/05/10 00:21:47;;;;;;;9.93;8.48;;;;;;;5.10;100.00;94109.50;4927139;28;20624;-73
2023/05/10 00:24:12;;;;;;;10.30;8.70;;;;;;;4.88;100.00;94090.66;4927433;28;20040;-73
2023/05/10 00:26:38;;;;;;;13.25;10.02;;;;;;;4.99;100.00;94113.25;4929893;28;20036;-73
2023/05/10 00:29:03;;;;;;;12.00;9.30;;;;;;;4.95;100.00;94112.22;4928143;28;20035;-73
2023/05/10 00:31:28;;;;;;;12.52;10.20;;;;;;;4.94;100.00;94115.91;4926186;28;20039;-72
2023/05/10 00:33:54;;;;;;;11.55;9.35;;;;;;;5.04;100.00;94115.84;4929768;28;20657;-74
2023/05/10 00:36:20;;;;;;;11.52;9.45;;;;;;;4.96;100.00;94108.53;4923579;28;20050;-71
2023/05/10 00:38:46;;;;;;;13.40;10.05;;;;;;;4.92;100.00;94110.13;4929090;28;20126;-73
2023/05/10 00:41:11;;;;;;;13.23;9.57;;;;;;;4.89;100.00;94084.31;4924233;28;20453;-72
2023/05/10 00:43:36;;;;;;;12.30;9.60;;;;;;;4.73;100.00;94087.28;4920256;28;20095;-72
2023/05/10 00:46:03;;;;;;;12.82;9.57;;;;;;;4.94;100.00;94099.31;4930187;28;20537;-73
2023/05/10 00:48:29;;;;;;;12.98;9.25;;;;;;;4.94;100.00;94094.81;4926208;28;20023;-72
2023/05/10 00:50:55;;;;;;;11.82;10.00;;;;;;;4.65;100.00;94070.97;4924347;28;20552;-72
2023/05/10 00:53:21;;;;;;;12.52;10.75;;;;;;;4.72;100.00;94083.84;4930198;28;20046;-72
2023/05/10 00:55:47;;;;;;;11.30;9.38;;;;;;;4.73;100.00;94088.06;4928251;28;20534;-71
2023/05/10 00:58:12;;;;;;;12.52;10.48;;;;;;;4.81;100.00;94076.16;4947255;28;20043;-71
2023/05/10 01:00:41;;;;;;;11.18;9.43;;;;;;;4.62;100.00;94083.88;4930482;28;20039;-72
2023/05/10 01:03:06;;;;;;;11.95;9.95;;;;;;;4.66;100.00;94071.75;4930772;28;20528;-72
2023/05/10 01:05:32;;;;;;;12.50;10.80;;;;;;;4.67;100.00;94082.03;4945239;28;20040;-71
2023/05/10 01:07:57;;;;;;;13.57;10.02;;;;;;;4.60;100.00;94075.47;4931215;28;20602;-72
2023/05/10 01:10:23;;;;;;;14.40;10.77;;;;;;;4.46;100.00;94072.59;4930385;28;20122;-71
2023/05/10 01:12:48;;;;;;;13.10;10.20;;;;;;;4.58;100.00;94070.47;4925392;28;20020;-72
2023/05/10 01:15:15;;;;;;;14.80;10.68;;;;;;;4.56;100.00;94072.56;4930704;28;20058;-71
2023/05/10 01:17:44;;;;;;;14.02;10.40;;;;;;;4.54;100.00;94073.91;4932851;28;20645;-72
2023/05/10 01:20:11;;;;;;;12.70;10.25;;;;;;;4.56;100.00;94075.22;4922930;28;20043;-72
2023/05/10 01:22:55;;;;;;;13.57;10.95;;;;;;;4.50;100.00;94057.06;4912241;29;20041;-74
2023/05/10 01:25:58;;;;;;;14.95;10.32;;;;;;;4.50;100.00;94062.34;4897600;28;20103;-72
2023/05/10 01:28:29;;;;;;;14.13;9.63;;;;;;;4.42;100.00;94054.97;4901766;28;20032;-71
2023/05/10 01:31:33;;;;;;;16.63;11.30;;;;;;;4.44;100.00;94066.84;4910618;29;20043;-71
2023/05/10 01:34:01;;;;;;;15.70;9.75;;;;;;;4.34;100.00;94052.91;4904208;28;20569;-72
2023/05/10 01:36:32;;;;;;;11.80;9.93;;;;;;;4.30;100.00;94051.88;4919040;28;20043;-73
2023/05/10 01:39:33;;;;;;;12.38;9.55;;;;;;;4.27;100.00;94053.94;4917066;28;20806;-73
2023/05/10 01:42:10;;;;;;;13.68;10.38;;;;;;;4.13;100.00;94021.34;4897704;29;20107;-72
2023/05/10 01:44:42;;;;;;;11.15;9.02;;;;;;;4.20;100.00;94042.91;4921192;28;20126;-74
2023/05/10 01:47:12;;;;;;;10.32;8.90;;;;;;;4.26;100.00;94036.56;4912305;29;20040;-72
2023/05/10 01:49:46;;;;;;;10.70;9.32;;;;;;;4.18;100.00;94039.75;4909714;29;20036;-73
2023/05/10 01:52:19;;;;;;;13.57;9.45;;;;;;;4.02;100.00;94013.72;4910388;28;20039;-70
2023/05/10 01:55:04;;;;;;;12.75;9.32;;;;;;;4.07;100.00;94043.44;4912841;29;20374;-73
2023/05/10 01:57:34;;;;;;;12.00;8.57;;;;;;;4.03;100.00;94029.25;4910872;29;20569;-73
2023/05/10 02:00:02;;;;;;;9.48;8.15;;;;;;;4.03;100.00;94034.53;4910501;28;20032;-73
2023/05/10 02:02:29;;;;;;;10.15;8.55;;;;;;;3.89;100.00;94038.75;4910441;28;20039;-73
2023/05/10 02:04:56;;;;;;;11.57;7.93;;;;;;;3.96;100.00;94020.88;4925773;28;20044;-72
2023/05/10 02:07:24;;;;;;;9.43;7.75;;;;;;;4.04;100.00;94037.94;4909313;28;20036;-72
2023/05/10 02:09:50;;;;;;;9.43;8.10;;;;;;;4.09;100.00;94043.19;4910805;29;20028;-73
2023/05/10 02:12:17;;;;;;;9.63;8.02;;;;;;;4.00;100.00;94026.38;4910656;29;20059;-72
2023/05/10 02:14:43;;;;;;;9.30;7.90;;;;;;;4.02;100.00;94019.78;4906856;28;20059;-73
2023/05/10 02:17:09;;;;;;;8.85;7.93;;;;;;;3.97;100.00;94024.25;4925328;28;20495;-72
2023/05/10 02:19:40;;;;;;;8.82;7.35;;;;;;;3.75;100.00;93987.75;4910547;28;20040;-72
2023/05/10 02:22:08;;;;;;;9.85;7.00;;;;;;;4.23;99.34;94031.84;4912079;29;20039;-73
2023/05/10 02:24:35;;;;;;;9.50;6.68;;;;;;;3.92;98.22;94022.44;4911718;29;20027;-73
2023/05/10 02:27:03;;;;;;;7.88;6.60;;;;;;;4.24;97.25;94030.00;4910378;29;20038;-72
2023/05/10 02:29:31;;;;;;;12.85;7.53;;;;;;;4.02;97.01;94025.03;4910065;28;20055;-73
2023/05/10 02:31:57;;;;;;;8.60;7.50;;;;;;;4.19;94.23;94030.81;4924377;28;20107;-73
2023/05/10 02:34:25;;;;;;;8.93;7.55;;;;;;;3.93;91.80;94016.13;4909836;28;20044;-73
2023/05/10 02:36:53;;;;;;;8.60;6.45;;;;;;;3.76;91.59;94023.53;4923718;28;20106;-73
2023/05/10 02:39:20;;;;;;;12.27;6.65;;;;;;;3.77;92.13;94033.75;4908572;28;20058;-73
2023/05/10 02:41:48;;;;;;;10.32;7.43;;;;;;;3.64;92.81;94033.50;4900518;28;20207;-72
2023/05/10 02:44:17;;;;;;;11.05;7.35;;;;;;;3.68;92.94;94013.50;4908393;29;20040;-72
2023/05/10 02:46:43;;;;;;;10.55;7.43;;;;;;;3.58;92.40;94008.25;4910816;28;20507;-72
2023/05/10 02:49:08;;;;;;;8.80;7.22;;;;;;;3.81;92.25;94023.50;4910720;29;20036;-72
2023/05/10 02:51:37;;;;;;;9.00;7.45;;;;;;;3.55;92.29;94024.56;4910145;29;20036;-72
2023/05/10 02:54:18;;;;;;;9.32;7.25;;;;;;;3.60;92.64;94011.44;4922985;28;21120;-72
2023/05/10 02:56:53;;;;;;;10.55;7.07;;;;;;;3.52;92.92;94011.97;4910962;29;20119;-71
2023/05/10 02:59:19;;;;;;;9.25;6.53;;;;;;;3.67;92.78;94017.97;4909210;29;20040;-72
2023/05/10 03:01:45;;;;;;;8.40;7.13;;;;;;;3.58;92.39;94003.78;4911050;28;20390;-72
2023/05/10 03:04:10;;;;;;;12.60;7.43;;;;;;;3.70;91.96;94020.09;4908163;29;21413;-71
2023/05/10 03:06:36;;;;;;;9.05;6.85;;;;;;;3.71;91.27;94008.53;4908676;29;20028;-73
2023/05/10 03:09:03;;;;;;;6.50;5.75;;;;;;;3.99;91.01;94020.31;4908741;29;20099;-72
2023/05/10 03:11:34;;;;;;;7.15;6.30;;;;;;;4.20;89.07;94026.31;4909727;28;20159;-72
2023/05/10 03:14:22;;;;;;;7.13;6.38;;;;;;;4.27;87.76;94026.81;4922329;28;20142;-71
2023/05/10 03:16:57;;;;;;;7.07;6.30;;;;;;;4.41;87.90;94013.91;4910447;29;20044;-71
2023/05/10 03:19:27;;;;;;;9.20;6.80;;;;;;;4.94;86.45;94022.88;4915501;29;20422;-72
2023/05/10 03:21:55;;;;;;;6.88;6.13;;;;;;;4.91;85.08;94008.41;4910801;29;20024;-71
2023/05/10 03:24:27;;;;;;;7.80;6.35;;;;;;;5.20;84.93;94013.75;4943227;28;20459;-72
2023/05/10 03:26:55;;;;;;;11.48;6.15;;;;;;;5.72;82.72;94021.00;4929624;28;20044;-71
2023/05/10 03:29:24;;;;;;;9.52;6.30;;;;;;;5.50;81.22;94033.84;4926679;28;20405;-72
2023/05/10 03:31:50;;;;;;;7.32;5.90;;;;;;;5.98;81.39;94032.91;4929589;28;20098;-72
2023/05/10 03:34:16;;;;;;;11.73;6.28;;;;;;;5.58;80.68;94015.56;4927070;28;20105;-72
2023/05/10 03:36:41;;;;;;;8.07;6.13;;;;;;;5.98;80.22;94030.25;4929703;28;20038;-71
2023/05/10 03:39:07;;;;;;;7.70;6.90;;;;;;;5.81;79.90;94043.09;4926603;28;20028;-72
2023/05/10 03:41:32;;;;;;;6.25;5.68;;;;;;;6.09;79.84;94035.44;4934618;28;20460;-72
2023/05/10 03:43:57;;;;;;;6.65;5.65;;;;;;;5.71;78.70;93998.31;4929625;28;20154;-72
2023/05/10 03:46:23;;;;;;;8.23;6.65;;;;;;;5.31;80.27;94039.00;4928537;28;20126;-73
2023/05/10 03:48:48;;;;;;;9.27;6.70;;;;;;;4.48;82.58;94014.41;4929026;28;20024;-71
2023/05/10 03:51:13;;;;;;;7.57;6.57;;;;;;;4.67;83.96;94049.63;4928303;28;20410;-71
2023/05/10 03:53:39;;;;;;;9.85;7.60;;;;;;;4.88;83.70;94048.47;4928922;28;20091;-72
2023/05/10 03:56:04;;;;;;;9.40;6.78;;;;;;;4.83;82.73;94056.41;4925694;28;20040;-72
2023/05/10 03:58:30;;;;;;;11.40;7.68;;;;;;;5.04;83.13;94063.13;4934771;28;20130;-73
2023/05/10 04:00:55;;;;;;;13.65;8.02;;;;;;;5.12;81.89;94051.25;4927680;28;20030;-72
2023/05/10 04:03:21;;;;;;;16.92;6.93;;;;;;;5.03;81.23;94060.78;4928979;28;20497;-73
2023/05/10 04:05:46;;;;;;;10.15;7.18;;;;;;;4.25;84.01;94058.69;4927341;28;20035;-72
2023/05/10 04:08:12;;;;;;;7.20;6.50;;;;;;;4.78;82.91;94061.69;4929489;28;20069;-72
2023/05/10 04:10:37;;;;;;;7.40;6.07;;;;;;;4.92;82.42;94075.06;4928302;28;20039;-73
2023/05/10 04:13:03;;;;;;;10.57;7.50;;;;;;;4.59;82.47;94061.53;4927179;28;20551;-73
2023/05/10 04:15:28;;;;;;;8.10;6.50;;;;;;;4.86;82.34;94065.59;4930952;28;20019;-72
2023/05/10 04:17:53;;;;;;;11.88;7.05;;;;;;;4.89;81.91;94044.78;4928314;28;20028;-72
2023/05/10 04:20:19;;;;;;;10.25;7.40;;;;;;;4.88;81.48;94024.75;4916624;28;20043;-71
2023/05/10 04:22:44;;;;;;;8.38;7.05;;;;;;;4.84;82.27;94071.16;4909128;29;20091;-71
2023/05/10 04:25:10;;;;;;;7.57;6.70;;;;;;;4.21;84.77;94078.69;4905937;29;20544;-72
2023/05/10 04:27:35;;;;;;;11.70;7.50;;;;;;;3.98;85.01;94074.00;4906742;29;20409;-72
2023/05/10 04:30:03;;;;;;;9.55;7.63;;;;;;;3.82;85.84;94049.53;4909462;28;20611;-73
2023/05/10 04:32:29;;;;;;;9.75;7.72;;;;;;;4.08;86.12;94071.34;4912117;28;20043;-71
2023/05/10 04:34:54;;;;;;;8.85;7.95;;;;;;;3.78;86.27;94047.72;4914506;29;20068;-71
2023/05/10 04:37:21;;;;;;;9.02;6.88;;;;;;;3.76;86.88;94082.19;4916189;29;20402;-73
2023/05/10 04:39:46;;;;;;;10.48;7.43;;;;;;;3.76;87.47;94071.66;4915467;29;20047;-71
2023/05/10 04:42:12;;;;;;;10.40;6.97;;;;;;;3.72;87.53;94069.84;4911100;28;20055;-71
2023/05/10 04:44:37;;;;;;;10.90;8.40;;;;;;;3.78;87.23;94050.34;4913307;29;20442;-73
2023/05/10 04:47:03;;;;;;;10.20;7.90;;;;;;;3.65;88.60;94072.72;4912396;28;20047;-72
2023/05/10 04:49:29;;;;;;;11.55;7.78;;;;;;;3.57;88.52;94061.94;4910951;28;20040;-72
2023/05/10 04:51:54;;;;;;;11.60;7.97;;;;;;;3.47;88.48;94070.63;4912785;29;20031;-71
2023/05/10 04:54:20;;;;;;;10.13;8.15;;;;;;;3.52;89.21;94061.94;4912738;29;20035;-72
2023/05/10 04:56:45;;;;;;;9.52;7.72;;;;;;;3.42;88.90;94051.41;4912599;28;20055;-72
2023/05/10 04:59:11;;;;;;;10.15;8.15;;;;;;;3.61;89.61;94070.88;4915414;28;20040;-72
2023/05/10 05:01:36;;;;;;;13.52;7.72;;;;;;;3.60;90.00;94037.72;4917347;29;20202;-72
2023/05/10 05:04:02;;;;;;;12.40;9.35;;;;;;;3.50;89.96;94058.75;4913221;28;20055;-71
2023/05/10 05:06:28;;;;;;;11.70;9.20;;;;;;;3.76;89.23;94068.25;4918720;29;20041;-72
2023/05/10 05:08:53;;;;;;;10.82;8.77;;;;;;;3.82;88.98;94075.84;4923642;28;20403;-73
2023/05/10 05:11:19;;;;;;;10.80;8.30;;;;;;;3.63;88.45;94079.28;4909069;28;20035;-73
2023/05/10 05:13:44;;;;;;;10.15;8.27;;;;;;;3.77;88.39;94090.88;4909643;29;20597;-73
2023/05/10 05:16:11;;;;;;;11.65;8.27;;;;;;;3.81;88.67;94076.13;4915577;28;20114;-72
2023/05/10 05:18:36;;;;;;;11.40;8.32;;;;;;;3.90;88.45;94090.34;4907308;29;20023;-70
2023/05/10 05:21:02;;;;;;;9.52;7.97;;;;;;;3.80;88.58;94059.56;4913388;29;20036;-72
2023/05/10 05:23:28;;;;;;;11.50;8.40;;;;;;;3.93;88.97;94083.75;4908647;29;20040;-72
2023/05/10 05:25:53;;;;;;;42.08;10.38;;;;;;;4.05;89.18;94087.69;4907742;29;20530;-71
2023/05/10 05:28:20;;;;;;;12.98;9.23;;;;;;;3.91;89.21;94094.56;4909205;29;20127;-74
2023/05/10 05:30:45;;;;;;;14.02;9.27;;;;;;;3.77;89.29;94093.50;4909571;29;20075;-72
2023/05/10 05:33:11;;;;;;;13.23;10.27;;;;;;;3.83;89.89;94100.31;4906152;28;20466;-72
2023/05/10 05:35:37;;;;;;;13.45;10.25;;;;;;;3.91;90.13;94094.56;4908907;28;20032;-73
2023/05/10 05:38:02;;;;;;;14.48;8.85;;;;;;;3.91;90.13;94109.53;4909948;28;20522;-73
2023/05/10 05:40:28;;;;;;;12.85;9.40;;;;;;;3.79;90.78;94094.81;4911653;29;20518;-73
2023/05/10 05:42:53;;;;;;;11.50;9.32;;;;;;;3.84;90.48;94094.81;4914680;29;20566;-72
2023/05/10 05:45:19;;;;;;;13.40;9.63;;;;;;;3.94;90.56;94098.47;4913040;29;20047;-71
2023/05/10 05:47:44;;;;;;;17.10;10.80;;;;;;;3.88;91.30;94110.06;4910088;29;20048;-72
2023/05/10 05:50:10;;;;;;;15.75;11.13;;;;;;;3.87;91.43;94101.38;4911689;28;20052;-72
2023/05/10 05:52:36;;;;;;;16.92;12.65;;;;;;;3.70;91.11;94117.44;4912437;29;20040;-73
2023/05/10 05:55:01;;;;;;;11.90;10.38;;;;;;;3.71;91.93;94115.59;4910769;29;20041;-72
2023/05/10 05:57:27;;;;;;;16.25;11.63;;;;;;;3.82;92.30;94131.09;4922355;28;20056;-71
2023/05/10 05:59:52;;;;;;;15.98;11.63;;;;;;;3.86;92.19;94126.13;4922359;28;20039;-72
2023/05/10 06:02:17;;;;;;;20.23;12.02;;;;;;;3.99;92.14;94125.59;4911784;29;20042;-72
2023/05/10 06:04:43;;;;;;;16.70;11.85;;;;;;;4.08;91.22;94120.56;4911254;29;20035;-71
2023/05/10 06:07:08;;;;;;;14.82;10.98;;;;;;;3.89;91.61;94094.00;4910378;29;20111;-73
2023/05/10 06:09:34;;;;;;;20.67;13.10;;;;;;;3.97;90.66;94114.53;4910605;29;20082;-71
2023/05/10 06:11:59;;;;;;;18.75;12.48;;;;;;;4.07;91.53;94117.16;4912232;28;20067;-73
2023/05/10 06:14:25;;;;;;;17.30;12.95;;;;;;;4.03;90.53;94128.47;4911183;28;20044;-74
2023/05/10 06:16:50;;;;;;;16.98;11.48;;;;;;;3.96;90.23;94126.13;4908833;29;20043;-74
2023/05/10 06:19:15;;;;;;;17.83;12.43;;;;;;;4.00;91.00;94126.38;4910435;29;20040;-71
2023/05/10 06:21:41;;;;;;;18.92;11.82;;;;;;;4.05;91.07;94114.00;4907998;29;20027;-71
2023/05/10 06:24:07;;;;;;;19.63;12.38;;;;;;;4.03;91.21;94131.09;4911742;28;20038;-73
2023/05/10 06:26:33;;;;;;;18.92;12.88;;;;;;;4.10;91.37;94127.16;4910243;29;20868;-71
2023/05/10 06:28:58;;;;;;;19.73;13.38;;;;;;;4.13;91.23;94120.56;4907465;29;20040;-72
2023/05/10 06:31:24;;;;;;;18.05;12.68;;;;;;;4.21;90.19;94139.25;4909746;29;20047;-71
2023/05/10 06:33:49;;;;;;;18.00;12.40;;;;;;;3.97;89.59;94106.63;4926823;28;20266;-71
2023/05/10 06:36:15;;;;;;;15.23;11.07;;;;;;;4.18;89.79;94137.16;4911113;28;20063;-72
2023/05/10 06:38:40;;;;;;;21.90;13.57;;;;;;;4.20;89.87;94132.44;4916637;29;20044;-71
2023/05/10 06:41:05;;;;;;;19.67;12.88;;;;;;;3.91;88.65;94091.91;4909464;28;20130;-74
2023/05/10 06:43:31;;;;;;;16.48;11.63;;;;;;;4.20;89.30;94137.69;4911087;29;20035;-73
2023/05/10 06:45:57;;;;;;;18.15;12.02;;;;;;;4.07;89.49;94130.31;4910825;29;20019;-72
2023/05/10 06:48:22;;;;;;;17.10;11.57;;;;;;;4.11;88.77;94136.63;4908620;29;20122;-72
2023/05/10 06:50:47;;;;;;;17.25;12.30;;;;;;;4.23;88.40;94146.88;4911707;28;20501;-71
2023/05/10 06:53:13;;;;;;;18.60;12.70;;;;;;;4.21;88.06;94139.25;4922695;28;20134;-73
2023/05/10 06:55:39;;;;;;;16.42;11.85;;;;;;;4.33;88.47;94138.22;4908555;29;20044;-71
2023/05/10 06:58:04;;;;;;;16.73;11.82;;;;;;;4.20;87.99;94127.16;4912540;29;20038;-72
2023/05/10 07:00:30;;;;;;;18.83;12.60;;;;;;;4.33;88.03;94140.84;4907980;29;20046;-71
2023/05/10 07:02:55;;;;;;;19.52;12.70;;;;;;;4.41;88.24;94140.31;4905095;29;20037;-71
2023/05/10 07:05:21;;;;;;;17.23;11.43;;;;;;;4.58;88.62;94146.06;4909702;29;20040;-72
2023/05/10 07:07:47;;;;;;;15.57;12.18;;;;;;;4.57;87.65;94147.13;4911078;28;20040;-73
2023/05/10 07:10:13;;;;;;;17.55;12.23;;;;;;;4.37;86.96;94131.34;4908545;29;20492;-73
2023/05/10 07:12:38;;;;;;;21.35;12.13;;;;;;;4.34;86.76;94121.38;4905614;29;20035;-73
2023/05/10 07:15:04;;;;;;;18.02;11.75;;;;;;;4.15;87.31;94124.53;4922842;28;20039;-73
2023/05/10 07:17:30;;;;;;;23.50;11.63;;;;;;;4.19;86.96;94151.91;4924823;28;20048;-72
2023/05/10 07:19:55;;;;;;;22.88;11.95;;;;;;;4.24;87.39;94137.94;4908658;29;20490;-71
2023/05/10 07:22:21;;;;;;;16.38;12.23;;;;;;;4.22;87.34;94130.31;4908187;29;20035;-72
2023/05/10 07:24:46;;;;;;;14.65;10.70;;;;;;;4.31;86.96;94135.84;4909285;29;20030;-71
2023/05/10 07:27:12;;;;;;;15.63;11.07;;;;;;;4.32;86.79;94157.69;4906308;29;20103;-71
2023/05/10 07:29:38;;;;;;;17.48;12.43;;;;;;;4.44;86.85;94155.59;4908857;29;20036;-72
2023/05/10 07:32:04;;;;;;;16.55;12.15;;;;;;;4.50;86.81;94154.53;4906977;29;20414;-73
2023/05/10 07:34:30;;;;;;;15.90;12.43;;;;;;;4.51;86.66;94158.72;4908241;29;20472;-72
2023/05/10 07:36:57;;;;;;;18.98;12.10;;;;;;;4.52;87.10;94133.97;4915048;29;20036;-72
2023/05/10 07:39:24;;;;;;;17.75;12.05;;;;;;;4.60;86.21;94159.78;4908051;29;20023;-74
2023/05/10 07:41:50;;;;;;;17.80;11.82;;;;;;;4.40;85.82;94147.44;4916151;29;20594;-72
2023/05/10 07:44:18;;;;;;;18.95;13.23;;;;;;;4.44;86.46;94153.75;4910384;29;20095;-73
2023/05/10 07:46:43;;;;;;;21.17;13.32;;;;;;;4.24;86.61;94151.09;4910520;29;20040;-73
2023/05/10 07:49:08;;;;;;;20.77;13.18;;;;;;;4.66;87.07;94163.97;4906073;29;20581;-73
2023/05/10 07:51:34;;;;;;;14.75;11.63;;;;;;;4.56;85.88;94161.34;4911355;29;20035;-71
2023/05/10 07:53:59;;;;;;;18.60;12.02;;;;;;;4.37;85.34;94115.56;4907807;29;20035;-71
2023/05/10 07:56:27;;;;;;;16.23;12.68;;;;;;;4.83;85.46;94167.09;4908232;29;20047;-71
2023/05/10 07:58:54;;;;;;;18.60;13.60;;;;;;;4.79;85.29;94166.06;4910727;29;20392;-71
2023/05/10 08:01:19;;;;;;;17.40;12.20;;;;;;;4.42;84.95;94113.72;4907755;29;20170;-74
2023/05/10 08:03:45;;;;;;;17.30;11.30;;;;;;;4.89;85.40;94163.41;4907917;29;20035;-71
2023/05/10 08:06:11;;;;;;;21.17;15.27;;;;;;;4.63;84.46;94153.97;4909772;28;20051;-72
2023/05/10 08:08:36;;;;;;;20.80;13.40;;;;;;;4.85;84.77;94175.50;4908954;29;20051;-72
2023/05/10 08:11:02;;;;;;;20.27;14.20;;;;;;;4.86;84.35;94177.09;4912328;28;20044;-72
2023/05/10 08:13:28;;;;;;;18.42;13.45;;;;;;;4.65;84.26;94157.09;4910970;29;20039;-71
2023/05/10 08:15:53;;;;;;;16.70;12.80;;;;;;;4.71;84.13;94169.22;4912888;29;20087;-70
2023/05/10 08:18:19;;;;;;;16.42;13.07;;;;;;;4.77;84.57;94173.44;4909098;29;20051;-72
2023/05/10 08:20:44;;;;;;;18.95;13.40;;;;;;;4.64;84.86;94152.91;4906563;29;20047;-71
2023/05/10 08:23:12;;;;;;;18.40;12.32;;;;;;;4.77;83.93;94173.44;4908174;29;20497;-72
2023/05/10 08:25:37;;;;;;;20.08;13.50;;;;;;;4.94;84.64;94176.53;4910129;29;20535;-72
2023/05/10 08:28:03;;;;;;;15.38;12.07;;;;;;;4.98;83.96;94180.22;4910656;28;20063;-73
2023/05/10 08:30:28;;;;;;;18.15;12.98;;;;;;;5.05;84.46;94164.09;4908424;29;20834;-72
2023/05/10 08:32:54;;;;;;;18.40;12.63;;;;;;;4.93;83.89;94174.97;4908646;28;20048;-73
2023/05/10 08:35:19;;;;;;;15.02;11.73;;;;;;;4.93;84.41;94176.81;4910984;28;20044;-73
2023/05/10 08:37:45;;;;;;;19.42;12.82;;;;;;;4.88;85.73;94174.97;4912827;29;20040;-73
2023/05/10 08:40:11;;;;;;;18.10;14.07;;;;;;;4.77;86.18;94172.63;4909819;29;20414;-74
2023/05/10 08:42:40;;;;;;;18.05;13.35;;;;;;;4.88;86.83;94174.97;4915394;29;20032;-73
2023/05/10 08:45:09;;;;;;;18.05;13.82;;;;;;;5.11;86.63;94174.38;4909885;29;20055;-72
2023/05/10 08:47:37;;;;;;;17.38;12.98;;;;;;;4.99;86.65;94168.59;4912439;29;20131;-71
2023/05/10 08:50:03;;;;;;;17.70;12.55;;;;;;;4.99;87.88;94160.69;4912792;29;20027;-73
2023/05/10 08:52:30;;;;;;;19.02;14.48;;;;;;;4.99;87.24;94176.50;4911687;29;20555;-71
2023/05/10 08:54:56;;;;;;;21.05;14.93;;;;;;;5.12;88.18;94175.97;4910862;29;20626;-73
2023/05/10 08:57:21;;;;;;;16.58;13.85;;;;;;;5.12;88.06;94177.81;4912030;29;20478;-71
2023/05/10 08:59:47;;;;;;;18.23;13.55;;;;;;;5.13;87.91;94176.75;4909109;28;20032;-72
2023/05/10 09:02:13;;;;;;;17.58;14.10;;;;;;;4.99;87.80;94155.41;4906671;29;20553;-70
2023/05/10 09:04:38;;;;;;;18.40;14.88;;;;;;;5.22;88.67;94183.03;4910915;29;20511;-72
2023/05/10 09:07:04;;;;;;;19.73;14.50;;;;;;;5.08;87.96;94166.22;4912524;29;20032;-72
2023/05/10 09:09:30;;;;;;;17.90;13.77;;;;;;;5.08;88.66;94169.66;4914683;28;20521;-72
2023/05/10 09:11:56;;;;;;;84.82;16.75;;;;;;;5.06;88.42;94178.88;4912066;29;20052;-74
2023/05/10 09:14:24;;;;;;;20.92;15.27;;;;;;;5.06;89.21;94161.22;4907159;29;20059;-73
2023/05/10 09:16:50;;;;;;;18.30;14.50;;;;;;;4.93;88.85;94171.53;4910825;29;20107;-72
2023/05/10 09:19:16;;;;;;;20.27;15.48;;;;;;;4.98;89.32;94169.69;4911414;29;20051;-72
2023/05/10 09:21:41;;;;;;;18.83;15.52;;;;;;;4.95;89.12;94172.03;4913638;29;20027;-72
2023/05/10 09:24:08;;;;;;;21.48;14.60;;;;;;;4.85;88.42;94170.22;4911605;28;20146;-73
2023/05/10 09:26:35;;;;;;;19.05;15.30;;;;;;;5.00;88.73;94167.56;4910878;29;20522;-73
2023/05/10 09:29:02;;;;;;;20.88;15.10;;;;;;;4.87;88.21;94157.59;4911554;29;20040;-74
2023/05/10 09:31:50;;;;;;;19.33;15.60;;;;;;;5.05;89.32;94169.38;4911218;29;20095;-70
2023/05/10 09:34:28;;;;;;;20.92;15.00;;;;;;;5.14;88.09;94171.19;4924463;28;20122;-73
2023/05/10 09:36:56;;;;;;;19.77;15.13;;;;;;;5.03;88.26;94143.31;4911037;29;20035;-73
2023/05/10 09:39:38;;;;;;;19.45;14.20;;;;;;;5.10;87.43;94166.72;4909480;29;20291;-72
2023/05/10 09:42:09;;;;;;;21.25;16.13;;;;;;;4.98;87.60;94142.53;4911103;29;20545;-72
2023/05/10 09:44:35;;;;;;;19.73;14.88;;;;;;;5.23;86.87;94171.44;4911845;29;20039;-71
2023/05/10 09:47:01;;;;;;;19.52;14.60;;;;;;;5.32;86.99;94167.16;4909768;29;20052;-71
2023/05/10 09:49:27;;;;;;;19.30;14.65;;;;;;;5.29;85.97;94172.97;4910210;29;20040;-74
2023/05/10 09:52:04;;;;;;;19.90;16.42;;;;;;;5.50;85.61;94166.53;4912555;29;20093;-73
2023/05/10 09:54:30;;;;;;;19.98;15.50;;;;;;;5.43;85.12;94162.63;4929323;28;20053;-74
2023/05/10 09:56:55;;;;;;;19.08;15.73;;;;;;;5.43;84.96;94155.47;4931677;28;20513;-71
2023/05/10 09:59:21;;;;;;;21.20;14.80;;;;;;;5.42;84.00;94146.03;4929887;28;20039;-72
2023/05/10 10:01:51;;;;;;;19.77;14.88;;;;;;;5.74;83.78;94150.81;4932077;28;20035;-71
2023/05/10 10:04:16;;;;;;;16.77;13.10;;;;;;;5.74;82.93;94156.09;4930410;28;20043;-72
2023/05/10 10:06:42;;;;;;;19.33;14.75;;;;;;;5.74;83.01;94135.00;4930688;28;20031;-72
2023/05/10 10:09:09;;;;;;;17.48;13.30;;;;;;;5.68;83.58;94146.63;4927455;28;20403;-72
2023/05/10 10:11:36;;;;;;;20.58;14.77;;;;;;;5.74;83.10;94145.53;4929734;28;20510;-71
2023/05/10 10:14:02;;;;;;;18.45;14.63;;;;;;;5.79;82.37;94137.59;4943529;28;20556;-74
2023/05/10 10:16:29;;;;;;;21.80;15.68;;;;;;;6.00;82.12;94139.03;4928273;28;20031;-72
2023/05/10 10:18:55;;;;;;;20.45;14.20;;;;;;;6.12;82.04;94143.16;4929720;28;20043;-72
2023/05/10 10:21:22;;;;;;;20.42;14.60;;;;;;;6.17;81.24;94138.66;4935177;28;20482;-72
2023/05/10 10:23:47;;;;;;;16.98;14.30;;;;;;;6.08;81.76;94134.19;4927973;28;20559;-72
2023/05/10 10:26:14;;;;;;;17.88;13.73;;;;;;;6.10;81.10;94140.00;4928537;28;20043;-72
2023/05/10 10:28:47;;;;;;;22.52;16.08;;;;;;;5.94;81.36;94124.28;4928221;28;21126;-72
2023/05/10 10:31:26;;;;;;;18.65;14.90;;;;;;;5.87;81.84;94139.63;4927195;28;20031;-73
2023/05/10 10:33:59;;;;;;;21.00;16.02;;;;;;;6.17;82.04;94145.78;4928021;28;20071;-73
2023/05/10 10:36:26;;;;;;;20.60;16.30;;;;;;;6.36;81.56;94141.41;4927355;28;20039;-72
2023/05/10 10:38:59;;;;;;;19.60;15.23;;;;;;;6.08;80.86;94132.34;4935672;28;20187;-73
2023/05/10 10:41:31;;;;;;;21.23;14.10;;;;;;;6.08;80.37;94134.19;4930073;28;20051;-71
2023/05/10 10:44:22;;;;;;;19.65;14.60;;;;;;;6.29;80.32;94139.09;4930224;28;20058;-72
2023/05/10 10:47:09;;;;;;;17.73;14.02;;;;;;;6.10;80.41;94148.72;4945878;28;20047;-74
2023/05/10 10:49:43;;;;;;;15.55;13.43;;;;;;;5.95;80.38;94140.91;4942395;28;20534;-73
2023/05/10 10:52:20;;;;;;;23.48;13.55;;;;;;;6.02;81.53;94142.16;4938592;28;22463;-73
2023/05/10 10:54:58;;;;;;;14.27;12.88;;;;;;;5.89;81.19;94134.88;4943848;28;20034;-72
2023/05/10 10:57:26;;;;;;;17.83;13.10;;;;;;;6.02;81.09;94130.06;4928363;28;20126;-74
2023/05/10 10:59:53;;;;;;;14.20;12.70;;;;;;;6.11;80.66;94145.03;4926507;28;20131;-72
2023/05/10 11:02:45;;;;;;;18.02;12.90;;;;;;;6.32;81.00;94145.66;4926878;28;20051;-73
2023/05/10 11:05:33;;;;;;;19.40;13.38;;;;;;;6.05;80.85;94129.50;4928560;28;20127;-72
2023/05/10 11:08:00;;;;;;;18.73;12.43;;;;;;;6.20;81.18;94140.75;4928244;28;20043;-72
2023/05/10 11:10:26;;;;;;;16.48;13.63;;;;;;;6.15;81.44;94145.25;4924338;28;20403;-73
2023/05/10 11:13:09;;;;;;;18.10;12.68;;;;;;;6.26;80.09;94141.50;4925410;28;20035;-72
2023/05/10 11:15:39;;;;;;;14.25;12.52;;;;;;;6.45;79.98;94137.09;4940997;28;20054;-73
2023/05/10 11:18:18;;;;;;;15.15;12.98;;;;;;;6.28;80.57;94142.00;4928164;28;20032;-70
2023/05/10 11:20:49;;;;;;;16.63;12.90;;;;;;;6.21;80.13;94138.91;4930560;28;20090;-71
2023/05/10 11:23:15;;;;;;;18.02;13.40;;;;;;;6.26;80.17;94134.34;4928507;28;20082;-74
2023/05/10 11:25:45;;;;;;;14.05;12.15;;;;;;;6.21;79.17;94144.19;4929617;28;20066;-73
2023/05/10 11:28:12;;;;;;;16.52;12.63;;;;;;;6.26;80.20;94126.41;4930642;28;20042;-72
2023/05/10 11:30:41;;;;;;;17.55;13.18;;;;;;;6.23;79.80;94147.31;4926670;28;20019;-71
2023/05/10 11:33:08;;;;;;;17.08;13.30;;;;;;;6.18;80.70;94142.06;4928012;28;20435;-72